Time;durP1;ratioP1;P1;durP2;ratioP2;P2;SDS_P1;SDS_P2;PMS_P1;PMS_P2;Temp;Humidity;BMP_temperature;BMP_pressure;BME280_temperature;BME280_humidity;BME280_pressure;Samples;Min_cycle;Max_cycle;Signal;HPM_P1;HPM_P2
2022/01/08 00:02:16;;;;;;;;;1.00;0.00;;;;;9.08;88.11;101184.16;5043795;28;61967;-75
2022/01/08 00:04:41;;;;;;;;;1.00;0.00;;;;;9.15;87.58;101194.19;5044173;28;61857;-75
2022/01/08 00:07:07;;;;;;;;;1.00;0.00;;;;;9.12;87.52;101201.84;5043437;28;62767;-75
2022/01/08 00:09:32;;;;;;;;;0.00;0.00;;;;;9.05;86.79;101216.31;5044193;28;61901;-75
2022/01/08 00:11:57;;;;;;;;;0.00;0.00;;;;;8.74;89.77;101208.38;5043865;28;61834;-75
2022/01/08 00:14:24;;;;;;;;;0.00;0.00;;;;;8.71;88.91;101216.97;5043204;28;62199;-75
2022/01/08 00:16:50;;;;;;;;;0.00;0.00;;;;;8.67;90.16;101219.31;5058568;28;63790;-75
2022/01/08 00:19:15;;;;;;;;;0.00;0.00;;;;;8.71;89.84;101221.31;5043884;28;61724;-75
2022/01/08 00:21:41;;;;;;;;;1.00;0.00;;;;;9.03;88.79;101220.56;5042600;28;61899;-75
2022/01/08 00:24:06;;;;;;;;;0.00;0.00;;;;;8.66;88.81;101217.53;5043869;28;61730;-75
2022/01/08 00:26:32;;;;;;;;;1.00;0.00;;;;;8.57;89.79;101224.00;5043068;28;61721;-75
2022/01/08 00:28:57;;;;;;;;;0.00;0.00;;;;;8.62;90.04;101223.38;5043595;28;61715;-75
2022/01/08 00:31:23;;;;;;;;;1.00;0.00;;;;;8.48;88.63;101226.06;5043655;28;61938;-76
2022/01/08 00:33:48;;;;;;;;;2.00;0.00;;;;;8.49;89.10;101229.59;5058945;28;61906;-75
2022/01/08 00:36:14;;;;;;;;;0.00;0.00;;;;;8.41;89.12;101223.91;5063083;28;61753;-75
2022/01/08 00:38:39;;;;;;;;;0.00;0.00;;;;;8.46;89.99;101222.47;5063592;28;61894;-75
2022/01/08 00:41:05;;;;;;;;;0.75;0.00;;;;;8.42;89.49;101236.19;5063628;28;61948;-75
2022/01/08 00:43:30;;;;;;;;;0.00;0.00;;;;;8.44;89.79;101246.72;5063980;28;61917;-75
2022/01/08 00:45:56;;;;;;;;;0.00;0.00;;;;;8.41;89.86;101250.06;5061549;28;63847;-75
2022/01/08 00:48:22;;;;;;;;;1.00;0.00;;;;;8.34;90.57;101246.13;5063328;28;61944;-75
2022/01/08 00:50:47;;;;;;;;;1.00;0.00;;;;;8.39;90.16;101249.94;5063352;28;61953;-75
2022/01/08 00:53:12;;;;;;;;;2.50;0.75;;;;;8.44;90.89;101258.13;5063653;28;61762;-75
2022/01/08 00:55:38;;;;;;;;;0.25;0.25;;;;;8.49;90.05;101267.13;5062596;28;61804;-75
2022/01/08 00:58:03;;;;;;;;;2.00;2.00;;;;;8.55;90.73;101271.84;5063283;28;61836;-75
2022/01/08 01:00:29;;;;;;;;;0.25;0.25;;;;;8.57;90.33;101271.13;5063419;28;61954;-75
2022/01/08 01:02:54;;;;;;;;;0.50;0.50;;;;;8.62;89.87;101271.38;5063312;28;61956;-75
2022/01/08 01:05:21;;;;;;;;;1.50;0.00;;;;;8.68;90.95;101269.13;5078016;28;63790;-75
2022/01/08 01:07:47;;;;;;;;;3.25;3.25;;;;;8.56;89.15;101269.28;5063310;28;61841;-75
2022/01/08 01:10:13;;;;;;;;;2.75;2.75;;;;;8.55;90.09;101264.00;5063078;28;61893;-75
2022/01/08 01:12:39;;;;;;;;;1.50;1.50;;;;;8.68;89.10;101269.13;5063538;28;61761;-75
2022/01/08 01:15:07;;;;;;;;;1.75;1.75;;;;;8.55;89.33;101277.06;5062306;28;61801;-75
2022/01/08 01:17:33;;;;;;;;;4.25;1.00;;;;;8.51;89.36;101268.13;5061486;28;61900;-75
2022/01/08 01:19:58;;;;;;;;;2.00;1.00;;;;;8.79;88.27;101272.41;5078777;28;61863;-75
2022/01/08 01:22:28;;;;;;;;;4.75;1.00;;;;;8.58;88.70;101277.25;5063046;28;61782;-75
2022/01/08 01:25:01;;;;;;;;;1.00;1.00;;;;;8.79;87.08;101272.41;5077707;28;64804;-75
2022/01/08 01:30:50;;;;;;;;;1.75;1.25;;;;;8.28;88.58;101276.25;5062817;28;61810;-75
2022/01/08 01:41:18;;;;;;;;;2.00;2.00;;;;;8.45;87.71;101257.28;5062924;28;62011;-75
2022/01/08 01:48:59;;;;;;;;;1.00;1.00;;;;;8.43;87.55;101271.97;5062520;28;61950;-75
2022/01/08 01:51:25;;;;;;;;;4.50;2.75;;;;;8.39;87.95;101259.50;5062422;28;61758;-75
2022/01/08 01:53:51;;;;;;;;;5.25;3.00;;;;;8.45;88.83;101279.94;5061301;28;62111;-75
2022/01/08 01:56:20;;;;;;;;;2.25;2.25;;;;;8.31;88.23;101269.50;5060350;28;64859;-75
2022/01/08 01:58:47;;;;;;;;;1.00;1.00;;;;;8.38;89.50;101269.06;5062341;28;61883;-75
2022/01/08 02:01:13;;;;;;;;;3.50;2.50;;;;;8.51;88.44;101278.59;5062730;28;62057;-75
2022/01/08 02:03:39;;;;;;;;;6.00;2.75;;;;;8.50;89.31;101266.31;5062477;28;61917;-75
2022/01/08 02:06:06;;;;;;;;;1.00;1.00;;;;;8.46;89.34;101263.41;5061874;28;62424;-75
2022/01/08 02:08:33;;;;;;;;;3.00;2.00;;;;;8.36;88.46;101270.69;5062124;28;61965;-75
2022/01/08 02:10:58;;;;;;;;;0.00;0.00;;;;;8.39;88.58;101270.84;5062344;28;62012;-75
2022/01/08 02:13:26;;;;;;;;;1.25;1.25;;;;;8.46;89.55;101276.50;5061016;28;62158;-75
2022/01/08 02:15:53;;;;;;;;;1.00;1.00;;;;;8.48;89.50;101280.09;5061784;28;61830;-75
2022/01/08 02:18:21;;;;;;;;;2.75;0.00;;;;;8.54;88.29;101284.00;5061865;28;61753;-75
2022/01/08 02:20:46;;;;;;;;;1.00;1.00;;;;;8.49;89.25;101274.09;5062469;28;61842;-75
2022/01/08 02:23:12;;;;;;;;;1.00;1.00;;;;;8.46;89.15;101281.72;5062540;28;61967;-75
2022/01/08 02:25:37;;;;;;;;;1.00;1.00;;;;;8.54;88.21;101291.84;5060978;28;61867;-75
2022/01/08 02:28:04;;;;;;;;;2.00;1.00;;;;;8.52;88.52;101292.56;5062147;28;61888;-75
2022/01/08 02:30:30;;;;;;;;;0.75;0.75;;;;;8.52;88.80;101287.34;5062312;28;61872;-75
2022/01/08 02:32:55;;;;;;;;;0.50;0.50;;;;;8.44;89.59;101286.88;5057131;28;62224;-75
2022/01/08 02:35:22;;;;;;;;;1.00;1.00;;;;;8.47;89.33;101287.06;5040066;28;62652;-75
2022/01/08 02:37:49;;;;;;;;;1.50;1.00;;;;;8.53;89.80;101287.44;5043992;28;61975;-75
2022/01/08 02:40:15;;;;;;;;;1.50;1.00;;;;;8.48;88.57;101291.47;5045413;28;63231;-75
2022/01/08 02:42:50;;;;;;;;;1.50;1.00;;;;;8.50;89.92;101282.00;5045447;28;61834;-75
2022/01/08 02:45:16;;;;;;;;;2.50;1.00;;;;;8.45;88.55;101272.97;5044937;28;61716;-75
2022/01/08 02:47:41;;;;;;;;;3.50;1.50;;;;;8.46;89.26;101273.88;5045234;28;62267;-75
2022/01/08 02:50:07;;;;;;;;;1.00;1.00;;;;;8.44;88.66;101279.03;5044022;28;61829;-75
2022/01/08 02:52:33;;;;;;;;;1.00;1.00;;;;;8.47;88.77;101283.56;5045390;28;62024;-75
2022/01/08 02:54:58;;;;;;;;;0.00;0.00;;;;;8.47;87.93;101307.09;5044168;28;61867;-75
2022/01/08 02:57:23;;;;;;;;;1.00;1.00;;;;;8.49;88.18;101300.25;5045053;28;62008;-75
2022/01/08 02:59:49;;;;;;;;;0.00;0.00;;;;;8.50;88.37;101291.56;5043782;28;62020;-75
2022/01/08 03:02:15;;;;;;;;;4.75;1.00;;;;;8.55;88.40;101296.28;5045148;28;61846;-75
2022/01/08 03:04:40;;;;;;;;;0.25;0.25;;;;;8.58;88.58;101292.94;5044394;28;61762;-75
2022/01/08 03:07:06;;;;;;;;;1.00;1.00;;;;;8.58;87.92;101300.78;5045228;28;62146;-75
2022/01/08 03:09:35;;;;;;;;;1.00;1.00;;;;;8.60;88.05;101305.31;5044561;28;61958;-75
2022/01/08 03:12:01;;;;;;;;;1.00;1.00;;;;;8.58;87.69;101290.31;5045442;28;61756;-75
2022/01/08 03:14:26;;;;;;;;;1.00;1.00;;;;;8.62;87.23;101296.66;5044572;28;62708;-75
2022/01/08 03:16:52;;;;;;;;;1.25;1.25;;;;;8.63;87.54;101293.22;5044846;28;61767;-75
2022/01/08 03:19:17;;;;;;;;;1.75;0.75;;;;;8.57;86.75;101286.81;5043409;28;61790;-75
2022/01/08 03:21:45;;;;;;;;;3.25;1.00;;;;;8.64;87.10;101284.56;5045112;28;62012;-75
2022/01/08 03:24:16;;;;;;;;;2.00;2.00;;;;;8.67;86.65;101282.13;5044193;28;62754;-75
2022/01/08 03:26:42;;;;;;;;;2.00;0.75;;;;;8.67;85.57;101276.88;5042930;28;62493;-75
2022/01/08 03:29:08;;;;;;;;;0.00;0.00;;;;;8.65;86.33;101275.91;5060111;28;61991;-75
2022/01/08 03:31:33;;;;;;;;;1.00;1.00;;;;;8.65;86.33;101275.91;5044835;28;61741;-75
2022/01/08 03:33:59;;;;;;;;;1.50;0.00;;;;;8.62;85.64;101276.63;5056553;28;62561;-75
2022/01/08 03:36:25;;;;;;;;;1.00;0.75;;;;;8.62;86.38;101284.47;5064955;28;61882;-75
2022/01/08 03:38:51;;;;;;;;;5.00;0.00;;;;;8.60;85.59;101284.38;5064167;28;62015;-75
2022/01/08 03:41:17;;;;;;;;;0.00;0.00;;;;;8.56;84.95;101285.00;5065095;28;61813;-75
2022/01/08 03:43:43;;;;;;;;;0.00;0.00;;;;;8.46;86.14;101285.28;5064014;28;62761;-75
2022/01/08 03:46:10;;;;;;;;;0.00;0.00;;;;;8.43;86.07;101287.69;5064534;28;62136;-75
2022/01/08 03:48:47;;;;;;;;;0.50;0.50;;;;;8.42;86.35;101290.19;5078580;27;61876;-75
2022/01/08 03:51:14;;;;;;;;;2.00;2.00;;;;;8.38;85.90;101289.09;5080468;27;62166;-75
2022/01/08 03:53:40;;;;;;;;;7.25;1.75;;;;;8.38;86.34;101283.84;5063944;28;61751;-75
2022/01/08 03:56:06;;;;;;;;;1.75;1.75;;;;;8.35;85.60;101281.94;5063628;28;61948;-75
2022/01/08 03:58:32;;;;;;;;;1.50;1.00;;;;;8.36;86.40;101281.13;5080103;28;61737;-75
2022/01/08 04:00:58;;;;;;;;;1.00;1.00;;;;;8.41;86.22;101278.84;5064489;28;62195;-75
2022/01/08 04:03:23;;;;;;;;;3.75;1.75;;;;;8.43;87.24;101273.72;5063421;28;62594;-75
2022/01/08 04:05:50;;;;;;;;;1.75;0.50;;;;;8.48;87.84;101280.09;5064305;28;61842;-75
2022/01/08 04:08:18;;;;;;;;;2.50;1.00;;;;;8.56;86.07;101282.38;5079746;28;61733;-75
2022/01/08 04:10:43;;;;;;;;;1.00;1.00;;;;;8.53;86.08;101291.78;5064598;28;61883;-75
2022/01/08 04:13:13;;;;;;;;;1.00;1.00;;;;;8.52;86.80;101285.63;5063637;28;61925;-75
2022/01/08 04:15:41;;;;;;;;;1.00;1.00;;;;;8.53;86.18;101291.78;5064206;28;61911;-75
2022/01/08 04:18:07;;;;;;;;;1.00;1.00;;;;;8.56;86.70;101282.38;5063909;28;62010;-75
2022/01/08 04:20:38;;;;;;;;;4.50;2.00;;;;;8.60;86.64;101284.38;5064384;28;61854;-75
2022/01/08 04:23:04;;;;;;;;;2.00;1.75;;;;;8.60;87.67;101276.53;5063030;28;62141;-75
2022/01/08 04:25:30;;;;;;;;;1.25;1.00;;;;;8.67;86.05;101280.41;5079519;28;61937;-75
2022/01/08 04:27:56;;;;;;;;;1.00;1.00;;;;;8.75;86.46;101273.91;5063847;28;61968;-75
2022/01/08 04:30:21;;;;;;;;;0.00;0.00;;;;;8.70;85.87;101275.38;5064465;28;61897;-75
2022/01/08 04:32:47;;;;;;;;;0.25;0.25;;;;;8.78;86.50;101276.75;5060099;28;62913;-75
2022/01/08 04:35:12;;;;;;;;;1.00;1.00;;;;;8.70;86.41;101284.94;5043491;28;62674;-75
2022/01/08 04:37:38;;;;;;;;;1.00;1.00;;;;;8.63;86.19;101283.66;5043608;28;61729;-75
2022/01/08 04:40:04;;;;;;;;;1.00;1.00;;;;;8.62;86.92;101275.72;5042251;28;62013;-75
2022/01/08 04:42:29;;;;;;;;;1.00;1.00;;;;;8.58;86.84;101272.00;5043222;28;62824;-75
2022/01/08 04:44:55;;;;;;;;;0.75;0.75;;;;;8.63;87.08;101264.44;5043396;28;61749;-75
2022/01/08 04:47:20;;;;;;;;;0.25;0.25;;;;;8.60;86.47;101268.66;5043148;28;61840;-75
2022/01/08 04:49:46;;;;;;;;;1.50;0.00;;;;;8.65;87.53;101276.78;5043791;28;61830;-75
2022/01/08 04:52:11;;;;;;;;;0.50;0.00;;;;;8.69;87.88;101293.59;5042533;28;61723;-75
2022/01/08 04:54:37;;;;;;;;;0.25;0.25;;;;;8.67;87.39;101296.09;5043531;28;61754;-75
2022/01/08 04:57:02;;;;;;;;;0.00;0.00;;;;;8.68;87.75;101299.66;5058668;28;61807;-75
2022/01/08 04:59:28;;;;;;;;;0.00;0.00;;;;;8.81;87.11;101307.41;5041482;28;62124;-75
2022/01/08 05:01:53;;;;;;;;;0.00;0.00;;;;;8.91;87.44;101311.47;5042785;28;61772;-75
2022/01/08 05:04:19;;;;;;;;;0.00;0.00;;;;;8.98;86.94;101319.78;5042888;28;61724;-75
2022/01/08 05:06:45;;;;;;;;;0.75;0.75;;;;;9.07;86.30;101305.44;5043065;28;61727;-75
2022/01/08 05:09:10;;;;;;;;;0.00;0.00;;;;;9.01;85.83;101312.09;5043287;28;62126;-75
2022/01/08 05:11:35;;;;;;;;;0.25;0.25;;;;;9.06;86.03;101306.22;5057963;28;63665;-75
2022/01/08 05:14:03;;;;;;;;;2.00;0.50;;;;;9.07;86.38;101293.25;5043067;28;61736;-75
2022/01/08 05:16:29;;;;;;;;;2.00;1.00;;;;;9.11;86.35;101289.09;5043051;28;61879;-75
2022/01/08 05:18:55;;;;;;;;;0.50;0.50;;;;;9.16;87.23;101272.81;5041799;28;61879;-75
2022/01/08 05:21:27;;;;;;;;;0.00;0.00;;;;;9.31;86.53;101274.53;5042172;28;62051;-75
2022/01/08 05:23:54;;;;;;;;;1.00;1.00;;;;;9.36;85.98;101288.78;5041720;28;61802;-75
2022/01/08 05:26:21;;;;;;;;;1.25;1.00;;;;;9.36;85.32;101287.09;5042569;28;61849;-75
2022/01/08 05:28:46;;;;;;;;;1.50;0.50;;;;;9.35;85.84;101292.22;5042924;28;61716;-75
2022/01/08 05:31:18;;;;;;;;;0.50;0.25;;;;;9.38;85.44;101288.06;5042354;28;61711;-75
2022/01/08 05:33:44;;;;;;;;;1.00;1.00;;;;;9.35;86.01;101279.13;5056749;28;61972;-75
2022/01/08 05:36:10;;;;;;;;;2.00;0.75;;;;;9.40;85.48;101275.97;5062570;28;62312;-75
2022/01/08 05:38:35;;;;;;;;;0.50;0.00;;;;;9.47;86.17;101269.34;5062698;28;63487;-75
2022/01/08 05:41:02;;;;;;;;;1.00;0.00;;;;;9.44;86.01;101263.91;5078060;28;64083;-75
2022/01/08 05:43:27;;;;;;;;;0.00;0.00;;;;;9.48;86.10;101254.53;5062484;28;61996;-75
2022/01/08 05:45:53;;;;;;;;;3.50;0.50;;;;;9.51;85.74;101249.44;5061381;28;61775;-75
2022/01/08 05:48:19;;;;;;;;;0.00;0.00;;;;;9.50;85.94;101251.16;5062344;28;62093;-75
2022/01/08 05:50:44;;;;;;;;;0.25;0.00;;;;;9.57;85.92;101255.03;5062225;28;62657;-75
2022/01/08 05:53:10;;;;;;;;;0.00;0.00;;;;;9.55;86.24;101243.56;5062467;28;61826;-75
2022/01/08 05:55:36;;;;;;;;;1.00;1.00;;;;;9.61;85.98;101255.28;5062134;28;61937;-75
2022/01/08 05:58:02;;;;;;;;;2.00;0.50;;;;;9.69;86.12;101253.09;5062845;28;61639;-75
2022/01/08 06:00:27;;;;;;;;;1.00;1.00;;;;;9.74;86.10;101267.34;5061630;28;62754;-75
2022/01/08 06:02:53;;;;;;;;;0.00;0.00;;;;;9.77;85.42;101266.66;5062009;28;61861;-75
2022/01/08 06:05:18;;;;;;;;;1.00;0.75;;;;;9.86;85.59;101267.13;5077890;27;61891;-75
2022/01/08 06:07:43;;;;;;;;;0.50;0.50;;;;;9.81;85.49;101274.75;5062234;28;61956;-75
2022/01/08 06:10:09;;;;;;;;;1.00;0.00;;;;;9.98;85.42;101278.31;5077481;28;63708;-75
2022/01/08 06:12:34;;;;;;;;;0.75;0.00;;;;;10.06;84.85;101272.56;5061250;28;61918;-75
2022/01/08 06:15:00;;;;;;;;;1.00;0.25;;;;;9.78;85.24;101273.66;5060781;28;61955;-75
2022/01/08 06:17:25;;;;;;;;;1.00;0.75;;;;;9.70;85.81;101265.38;5061931;28;62002;-75
2022/01/08 06:19:51;;;;;;;;;0.00;0.00;;;;;9.70;85.74;101264.47;5061653;28;62072;-75
2022/01/08 06:22:16;;;;;;;;;1.00;1.00;;;;;9.69;85.74;101250.47;5062302;28;62023;-75
2022/01/08 06:24:42;;;;;;;;;1.00;0.00;;;;;9.65;86.17;101239.75;5062085;28;61827;-75
2022/01/08 06:27:07;;;;;;;;;3.00;1.00;;;;;9.77;85.40;101238.69;5077511;27;61748;-75
2022/01/08 06:29:33;;;;;;;;;1.50;0.00;;;;;9.86;85.94;101242.66;5061183;28;62518;-75
2022/01/08 06:31:58;;;;;;;;;0.00;0.00;;;;;9.86;85.50;101248.78;5061811;28;61903;-75
2022/01/08 06:34:24;;;;;;;;;0.00;0.00;;;;;10.21;84.50;101260.28;5057223;28;62179;-75
2022/01/08 06:36:49;;;;;;;;;2.00;0.00;;;;;9.95;85.29;101251.91;5042025;28;61742;-75
2022/01/08 06:39:15;;;;;;;;;2.25;1.00;;;;;9.99;85.93;101248.63;5041148;28;61873;-75
2022/01/08 06:41:41;;;;;;;;;4.25;0.50;;;;;10.03;86.09;101250.59;5041856;28;61748;-75
2022/01/08 06:44:06;;;;;;;;;0.25;0.25;;;;;10.07;85.99;101235.94;5041802;28;62388;-75
2022/01/08 06:46:32;;;;;;;;;2.00;0.00;;;;;10.13;85.54;101235.34;5041464;28;61818;-75
2022/01/08 06:48:59;;;;;;;;;0.50;0.00;;;;;10.12;85.24;101230.94;5040761;28;62737;-75
2022/01/08 06:51:25;;;;;;;;;1.50;0.25;;;;;10.18;85.42;101221.66;5040256;28;61886;-75
2022/01/08 06:53:50;;;;;;;;;1.00;0.00;;;;;10.12;85.97;101223.97;5041612;28;62131;-75
2022/01/08 06:56:17;;;;;;;;;0.50;0.00;;;;;10.12;85.79;101231.81;5041544;28;61993;-75
2022/01/08 06:58:43;;;;;;;;;1.00;0.00;;;;;10.17;84.96;101222.47;5056411;28;64951;-76
2022/01/08 07:01:09;;;;;;;;;0.00;0.00;;;;;10.20;85.08;101222.66;5041192;28;61919;-77
2022/01/08 07:03:34;;;;;;;;;1.00;1.00;;;;;10.20;84.80;101225.28;5056616;28;62006;-75
2022/01/08 07:06:00;;;;;;;;;1.75;0.00;;;;;10.11;85.42;101214.31;5041618;28;61972;-75
2022/01/08 07:08:25;;;;;;;;;5.00;1.00;;;;;10.03;85.78;101229.63;5040941;28;61904;-75
2022/01/08 07:10:51;;;;;;;;;0.00;0.00;;;;;10.08;86.38;101213.22;5039715;28;62722;-75
2022/01/08 07:13:16;;;;;;;;;3.00;0.25;;;;;10.04;87.02;101217.41;5041546;28;62337;-75
2022/01/08 07:15:41;;;;;;;;;1.00;1.00;;;;;10.01;87.29;101205.03;5046276;28;62115;-75
2022/01/08 07:18:07;;;;;;;;;2.50;1.00;;;;;10.03;87.39;101205.13;5064241;28;63730;-75
2022/01/08 07:20:32;;;;;;;;;2.00;0.50;;;;;10.03;87.81;101190.28;5051309;28;61849;-74
2022/01/08 07:22:59;;;;;;;;;2.75;1.00;;;;;10.01;87.34;101180.53;5046719;28;61970;-74
2022/01/08 07:25:25;;;;;;;;;1.00;0.00;;;;;10.06;87.69;101189.53;5043396;28;61881;-74
2022/01/08 07:27:50;;;;;;;;;1.75;1.00;;;;;10.01;87.77;101186.66;5043995;28;62766;-74
2022/01/08 07:30:15;;;;;;;;;2.75;1.00;;;;;10.31;86.06;101185.63;5044391;28;61787;-74
2022/01/08 07:32:51;;;;;;;;;1.75;1.75;;;;;10.08;87.10;101179.13;5049539;28;62377;-74
2022/01/08 07:35:19;;;;;;;;;2.00;1.00;;;;;10.14;88.14;101179.47;5063659;28;62209;-74
2022/01/08 07:37:45;;;;;;;;;3.00;1.00;;;;;10.17;88.30;101191.00;5064274;28;62015;-73
2022/01/08 07:40:13;;;;;;;;;2.75;2.00;;;;;10.17;87.84;101185.75;5062966;28;61887;-74
2022/01/08 07:42:39;;;;;;;;;4.25;1.75;;;;;10.23;88.14;101183.44;5064703;28;61837;-74
2022/01/08 07:45:06;;;;;;;;;2.50;2.50;;;;;10.33;87.81;101184.88;5064394;28;62290;-74
2022/01/08 07:47:32;;;;;;;;;2.75;2.00;;;;;10.45;87.97;101171.47;5063576;28;62839;-73
2022/01/08 07:49:57;;;;;;;;;5.00;1.00;;;;;10.64;87.61;101174.19;5064335;28;61931;-75
2022/01/08 07:52:22;;;;;;;;;1.75;1.75;;;;;10.41;88.24;101175.69;5064670;28;61859;-74
2022/01/08 07:54:48;;;;;;;;;5.00;1.25;;;;;10.67;88.46;101162.03;5064408;28;61988;-74
2022/01/08 07:57:13;;;;;;;;;5.50;2.00;;;;;10.53;88.62;101175.38;5062900;28;61852;-73
2022/01/08 07:59:39;;;;;;;;;9.00;2.00;;;;;10.55;88.86;101162.34;5044074;28;62041;-74
2022/01/08 08:02:04;;;;;;;;;2.25;2.00;;;;;10.62;88.57;101169.69;5051448;28;61807;-75
2022/01/08 08:04:29;;;;;;;;;4.00;2.50;;;;;10.68;88.35;101151.63;5062527;28;62088;-74
2022/01/08 08:06:55;;;;;;;;;6.25;2.00;;;;;10.71;88.45;101156.13;5060494;28;63751;-75
2022/01/08 08:09:20;;;;;;;;;10.00;3.00;;;;;10.73;88.53;101165.91;5054342;28;61855;-76
2022/01/08 08:11:46;;;;;;;;;6.75;5.50;;;;;10.83;88.44;101159.38;5046593;28;61846;-76
2022/01/08 08:14:11;;;;;;;;;3.00;3.00;;;;;10.70;88.93;101151.72;5043329;28;62113;-75
2022/01/08 08:16:37;;;;;;;;;2.75;2.75;;;;;10.68;89.03;101143.75;5043225;28;61696;-76
2022/01/08 08:19:03;;;;;;;;;6.00;3.00;;;;;10.72;89.05;101134.31;5043368;28;61891;-76
2022/01/08 08:21:28;;;;;;;;;5.75;4.00;;;;;10.80;89.35;101138.22;5043195;28;61760;-75
2022/01/08 08:23:54;;;;;;;;;6.75;4.00;;;;;10.76;89.31;101134.53;5042321;28;62055;-76
2022/01/08 08:26:19;;;;;;;;;4.25;2.00;;;;;10.70;89.91;101122.84;5039489;28;62723;-75
2022/01/08 08:28:45;;;;;;;;;7.25;5.00;;;;;10.83;89.56;101115.63;5042479;28;62251;-76
2022/01/08 08:31:11;;;;;;;;;7.25;3.00;;;;;10.83;90.37;101112.09;5042879;28;61996;-75
2022/01/08 08:33:38;;;;;;;;;6.00;2.00;;;;;10.79;90.35;101116.28;5056173;28;61933;-75
2022/01/08 08:36:03;;;;;;;;;6.25;3.50;;;;;10.89;90.79;101106.25;5061949;28;61839;-76
2022/01/08 08:38:29;;;;;;;;;3.00;1.75;;;;;10.89;93.03;101095.75;5051583;28;62070;-75
2022/01/08 08:40:55;;;;;;;;;7.00;3.00;;;;;10.87;92.34;101095.66;5051631;28;62074;-75
2022/01/08 08:43:20;;;;;;;;;11.25;3.50;;;;;10.94;92.49;101086.34;5055760;28;61865;-75
2022/01/08 08:45:46;;;;;;;;;9.75;6.00;;;;;11.02;92.11;101080.63;5075501;28;64689;-75
2022/01/08 08:48:12;;;;;;;;;1.25;1.25;;;;;10.95;92.24;101082.91;5058802;28;61798;-75
2022/01/08 08:50:38;;;;;;;;;2.00;2.00;;;;;11.04;93.04;101078.97;5069886;28;62250;-75
2022/01/08 08:53:03;;;;;;;;;3.00;2.00;;;;;11.06;93.11;101068.56;5074594;28;61875;-75
2022/01/08 08:55:29;;;;;;;;;6.50;2.75;;;;;11.11;93.26;101077.53;5055806;28;61875;-75
2022/01/08 08:57:54;;;;;;;;;2.75;1.00;;;;;11.10;93.47;101061.69;5043115;28;61777;-75
2022/01/08 09:00:20;;;;;;;;;3.00;2.00;;;;;11.19;93.60;101063.03;5045859;28;61767;-75
2022/01/08 09:02:45;;;;;;;;;4.50;2.25;;;;;11.21;93.61;101063.13;5063211;28;61925;-75
2022/01/08 09:05:11;;;;;;;;;3.50;3.50;;;;;11.18;93.39;101056.00;5077904;28;63765;-75
2022/01/08 09:07:38;;;;;;;;;2.50;2.00;;;;;11.14;94.18;101064.56;5062910;28;62052;-75
2022/01/08 09:10:05;;;;;;;;;3.00;2.00;;;;;11.21;93.77;101057.84;5063167;28;61825;-75
2022/01/08 09:12:32;;;;;;;;;2.00;2.00;;;;;11.36;93.63;101049.78;5062667;28;62106;-75
2022/01/08 09:14:57;;;;;;;;;7.25;3.00;;;;;11.50;93.09;101056.53;5062437;28;61733;-75
2022/01/08 09:17:24;;;;;;;;;8.00;3.00;;;;;11.54;92.76;101047.06;5062782;28;62001;-75
2022/01/08 09:19:50;;;;;;;;;3.00;3.00;;;;;11.64;92.64;101033.50;5078298;28;61944;-75
2022/01/08 09:22:16;;;;;;;;;1.75;1.75;;;;;11.74;92.34;101032.16;5062977;28;62013;-75
2022/01/08 09:24:43;;;;;;;;;9.25;2.00;;;;;11.74;92.82;101032.16;5061795;28;62531;-75
2022/01/08 09:27:09;;;;;;;;;2.25;2.25;;;;;11.80;92.65;101030.72;5074501;28;61966;-75
2022/01/08 09:29:34;;;;;;;;;3.00;1.75;;;;;11.85;92.56;101029.16;5045061;28;61873;-75
2022/01/08 09:32:00;;;;;;;;;4.25;2.00;;;;;11.93;91.94;101026.88;5060683;28;61861;-75
2022/01/08 09:34:26;;;;;;;;;5.25;3.00;;;;;11.97;92.07;101028.81;5061724;28;63024;-75
2022/01/08 09:36:52;;;;;;;;;6.00;3.00;;;;;11.99;92.08;101023.63;5061183;28;61908;-75
2022/01/08 09:39:18;;;;;;;;;3.75;2.25;;;;;12.04;92.19;101020.38;5061174;28;62282;-75
2022/01/08 09:41:44;;;;;;;;;2.75;2.75;;;;;12.07;91.75;101014.34;5062479;28;61895;-76
2022/01/08 09:44:11;;;;;;;;;9.25;4.25;;;;;12.01;92.57;101007.06;5060309;28;63624;-76
2022/01/08 09:46:36;;;;;;;;;4.00;2.00;;;;;12.14;92.44;100997.06;5062436;28;61786;-75
2022/01/08 09:49:03;;;;;;;;;4.50;3.00;;;;;12.19;92.24;100993.78;5062438;28;62096;-75
2022/01/08 09:51:28;;;;;;;;;6.00;4.00;;;;;12.22;91.88;100991.28;5062526;28;62059;-75
2022/01/08 09:53:54;;;;;;;;;3.50;2.00;;;;;12.27;91.90;100983.56;5058640;28;64722;-75
2022/01/08 09:56:22;;;;;;;;;9.25;4.25;;;;;12.22;91.94;100966.69;5061777;28;61808;-75
2022/01/08 09:58:48;;;;;;;;;5.50;3.00;;;;;12.26;92.12;100964.25;5062029;28;61963;-75
2022/01/08 10:01:28;;;;;;;;;4.75;4.75;;;;;12.31;92.37;100955.66;5062476;28;61777;-75
2022/01/08 10:03:55;;;;;;;;;2.50;2.25;;;;;12.39;91.91;100959.47;5061699;28;62705;-75
2022/01/08 10:06:26;;;;;;;;;3.25;2.00;;;;;12.39;92.16;100964.75;5062010;28;61939;-75
2022/01/08 10:08:52;;;;;;;;;3.75;3.00;;;;;12.40;91.90;100969.16;5062104;28;62033;-75
2022/01/08 10:11:19;;;;;;;;;3.00;1.50;;;;;12.42;92.21;100956.97;5062478;28;61879;-75
2022/01/08 10:13:47;;;;;;;;;3.25;3.25;;;;;12.48;92.33;100958.09;5059795;28;65085;-74
2022/01/08 10:19:00;;;;;;;;;4.75;3.00;;;;;12.63;92.13;100949.00;5061927;28;61856;-74
2022/01/08 10:21:34;;;;;;;;;4.00;2.75;;;;;12.58;92.33;100943.56;5062215;28;61794;-75
2022/01/08 10:24:08;;;;;;;;;4.50;3.00;;;;;12.65;91.97;100937.69;5061378;28;62641;-75
2022/01/08 10:26:41;;;;;;;;;4.75;1.00;;;;;12.45;93.10;100942.19;5060435;28;61904;-75
2022/01/08 10:29:12;;;;;;;;;4.50;3.00;;;;;12.45;94.81;100934.28;5061877;28;61765;-75
2022/01/08 10:31:43;;;;;;;;;10.25;4.25;;;;;12.50;98.39;100923.94;5061990;28;61969;-75
2022/01/08 10:34:13;;;;;;;;;6.00;2.75;;;;;12.36;98.58;100927.75;5061015;28;62070;-75
2022/01/08 10:36:42;;;;;;;;;7.50;3.25;;;;;12.35;98.35;100916.34;5061353;28;61945;-75
2022/01/08 10:39:18;;;;;;;;;6.75;3.00;;;;;12.45;100.00;100920.25;5061556;28;61742;-75
2022/01/08 10:41:45;;;;;;;;;6.50;3.75;;;;;12.39;100.00;100907.72;5052417;28;61768;-73
2022/01/08 10:44:31;;;;;;;;;4.75;3.25;;;;;12.34;100.00;100895.22;5049005;28;62210;-76
2022/01/08 10:47:01;;;;;;;;;4.25;2.00;;;;;12.31;100.00;100893.38;5073254;28;62003;-75
2022/01/08 10:49:36;;;;;;;;;3.00;2.00;;;;;12.33;100.00;100891.69;5061543;28;61849;-76
2022/01/08 10:52:06;;;;;;;;;13.25;4.75;;;;;12.33;99.90;100888.16;5059819;28;61910;-75
2022/01/08 10:54:35;;;;;;;;;9.25;4.00;;;;;12.35;99.32;100871.59;5060331;28;61762;-75
2022/01/08 10:57:03;;;;;;;;;3.50;3.50;;;;;12.39;99.48;100862.97;5055592;28;61798;-75
2022/01/08 10:59:30;;;;;;;;;7.00;3.75;;;;;12.45;98.64;100857.94;5045104;28;61818;-80
2022/01/08 11:02:00;;;;;;;;;10.50;6.75;;;;;12.39;98.60;100856.81;5044887;28;61885;-75
2022/01/08 11:04:47;;;;;;;;;8.75;3.25;;;;;12.49;98.25;100837.91;5044019;28;61788;-74
2022/01/08 11:07:16;;;;;;;;;4.00;2.25;;;;;12.36;97.93;100839.19;5044855;28;61917;-75
2022/01/08 11:09:46;;;;;;;;;5.00;5.00;;;;;12.37;99.62;100838.31;5044390;28;61953;-75
2022/01/08 11:12:36;;;;;;;;;8.00;3.00;;;;;12.43;100.00;100830.66;5056587;28;61699;-75
2022/01/08 11:17:45;;;;;;;;;7.25;4.00;;;;;12.39;100.00;100812.06;5054955;28;61735;-75
2022/01/08 11:20:14;;;;;;;;;6.25;3.00;;;;;12.51;98.99;100803.72;5052853;28;62481;-75
2022/01/08 11:22:50;;;;;;;;;3.25;2.25;;;;;12.47;98.89;100802.72;5077554;28;62925;-74
2022/01/08 11:25:21;;;;;;;;;12.00;6.00;;;;;12.53;98.96;100789.75;5052300;28;63030;-75
2022/01/08 11:28:22;;;;;;;;;9.00;1.50;;;;;12.43;97.49;100785.91;5051879;28;61796;-75
2022/01/08 11:30:52;;;;;;;;;8.00;3.00;;;;;12.64;98.52;100784.91;5052740;28;62179;-75
2022/01/08 11:33:30;;;;;;;;;10.00;3.50;;;;;12.53;97.36;100773.06;5055461;28;62001;-75
2022/01/08 11:35:57;;;;;;;;;5.75;2.50;;;;;12.57;97.33;100757.44;5049577;28;61790;-75
2022/01/08 11:38:26;;;;;;;;;8.00;3.00;;;;;12.53;96.04;100750.25;5049152;28;61987;-75
2022/01/08 11:40:54;;;;;;;;;11.25;2.50;;;;;12.61;96.50;100742.66;5054534;28;61866;-75
2022/01/08 11:43:25;;;;;;;;;3.50;1.75;;;;;12.63;96.94;100733.97;5052683;28;62007;-75
2022/01/08 11:46:06;;;;;;;;;5.00;3.00;;;;;12.64;98.57;100729.63;5062440;28;64057;-75
2022/01/08 11:48:40;;;;;;;;;4.00;4.00;;;;;12.53;98.79;100721.31;5064038;28;61991;-75
2022/01/08 11:51:14;;;;;;;;;4.75;1.50;;;;;12.47;98.47;100693.03;5064141;28;61889;-75